sensor_id;sensor_type;location;lat;lon;timestamp;pressure;altitude;pressure_sealevel;temperature;humidity
28312;BME280;15572;48.810;9.148;2022-10-31T00:00:49;98620.94;;;10.90;100.00
28312;BME280;15572;48.810;9.148;2022-10-31T00:05:47;98618.22;;;10.90;100.00
28312;BME280;15572;48.810;9.148;2022-10-31T00:10:45;98620.28;;;10.88;100.00
28312;BME280;15572;48.810;9.148;2022-10-31T00:15:42;98623.28;;;10.93;100.00
28312;BME280;15572;48.810;9.148;2022-10-31T00:20:39;98620.94;;;10.90;100.00
28312;BME280;15572;48.810;9.148;2022-10-31T00:25:37;98623.94;;;10.81;100.00
28312;BME280;15572;48.810;9.148;2022-10-31T00:30:35;98617.41;;;10.75;100.00
28312;BME280;15572;48.810;9.148;2022-10-31T00:35:32;98619.19;;;10.68;100.00
28312;BME280;15572;48.810;9.148;2022-10-31T00:40:28;98621.97;;;10.60;100.00
28312;BME280;15572;48.810;9.148;2022-10-31T00:45:25;98618.59;;;10.58;100.00
28312;BME280;15572;48.810;9.148;2022-10-31T00:50:23;98617.69;;;10.51;100.00
28312;BME280;15572;48.810;9.148;2022-10-31T00:55:19;98622.53;;;10.55;100.00
28312;BME280;15572;48.810;9.148;2022-10-31T01:00:16;98621.41;;;10.50;100.00
28312;BME280;15572;48.810;9.148;2022-10-31T01:05:13;98615.63;;;10.53;100.00
28312;BME280;15572;48.810;9.148;2022-10-31T01:10:11;98617.13;;;10.55;100.00
28312;BME280;15572;48.810;9.148;2022-10-31T01:15:09;98611.88;;;10.54;100.00
28312;BME280;15572;48.810;9.148;2022-10-31T01:20:07;98607.94;;;10.42;100.00
28312;BME280;15572;48.810;9.148;2022-10-31T01:25:05;98605.81;;;10.37;100.00
28312;BME280;15572;48.810;9.148;2022-10-31T01:30:05;98608.91;;;10.34;100.00
28312;BME280;15572;48.810;9.148;2022-10-31T01:35:02;98608.22;;;10.32;100.00
28312;BME280;15572;48.810;9.148;2022-10-31T01:39:58;98607.88;;;10.35;100.00
28312;BME280;15572;48.810;9.148;2022-10-31T01:44:58;98598.25;;;10.33;100.00
28312;BME280;15572;48.810;9.148;2022-10-31T01:49:57;98604.22;;;10.28;100.00
28312;BME280;15572;48.810;9.148;2022-10-31T01:54:59;98598.81;;;10.28;100.00
28312;BME280;15572;48.810;9.148;2022-10-31T02:00:00;98598.91;;;10.20;100.00
28312;BME280;15572;48.810;9.148;2022-10-31T02:05:00;98603.38;;;10.28;100.00
28312;BME280;15572;48.810;9.148;2022-10-31T02:09:58;98594.34;;;10.35;100.00
28312;BME280;15572;48.810;9.148;2022-10-31T02:14:56;98596.50;;;10.25;100.00
28312;BME280;15572;48.810;9.148;2022-10-31T02:19:58;98599.94;;;10.19;100.00
28312;BME280;15572;48.810;9.148;2022-10-31T02:25:09;98600.09;;;10.18;100.00
28312;BME280;15572;48.810;9.148;2022-10-31T02:30:14;98594.88;;;10.16;100.00
28312;BME280;15572;48.810;9.148;2022-10-31T02:35:24;98600.50;;;10.06;100.00
28312;BME280;15572;48.810;9.148;2022-10-31T02:40:26;98602.47;;;9.98;100.00
28312;BME280;15572;48.810;9.148;2022-10-31T02:45:30;98599.63;;;9.91;100.00
28312;BME280;15572;48.810;9.148;2022-10-31T02:50:31;98596.38;;;9.96;100.00
28312;BME280;15572;48.810;9.148;2022-10-31T02:55:47;98595.25;;;9.90;100.00
28312;BME280;15572;48.810;9.148;2022-10-31T03:00:56;98596.47;;;9.88;100.00
28312;BME280;15572;48.810;9.148;2022-10-31T03:06:00;98597.50;;;9.87;100.00
28312;BME280;15572;48.810;9.148;2022-10-31T03:11:00;98589.84;;;9.90;100.00
28312;BME280;15572;48.810;9.148;2022-10-31T03:16:05;98589.25;;;9.80;100.00
28312;BME280;15572;48.810;9.148;2022-10-31T03:21:07;98586.81;;;9.70;100.00
28312;BME280;15572;48.810;9.148;2022-10-31T03:26:08;98591.72;;;9.67;100.00
28312;BME280;15572;48.810;9.148;2022-10-31T03:31:06;98603.03;;;9.70;100.00
28312;BME280;15572;48.810;9.148;2022-10-31T03:36:08;98597.44;;;9.72;100.00
28312;BME280;15572;48.810;9.148;2022-10-31T03:41:10;98597.13;;;9.67;100.00
28312;BME280;15572;48.810;9.148;2022-10-31T03:46:08;98599.91;;;9.59;100.00
28312;BME280;15572;48.810;9.148;2022-10-31T03:51:10;98598.59;;;9.55;100.00
28312;BME280;15572;48.810;9.148;2022-10-31T03:56:16;98589.94;;;9.59;100.00
28312;BME280;15572;48.810;9.148;2022-10-31T04:01:16;98594.50;;;9.59;100.00
28312;BME280;15572;48.810;9.148;2022-10-31T04:06:16;98588.63;;;9.55;100.00
28312;BME280;15572;48.810;9.148;2022-10-31T04:11:16;98595.38;;;9.51;100.00
28312;BME280;15572;48.810;9.148;2022-10-31T04:16:15;98595.63;;;9.42;100.00
28312;BME280;15572;48.810;9.148;2022-10-31T04:21:13;98571.84;;;9.37;100.00
28312;BME280;15572;48.810;9.148;2022-10-31T04:26:12;98576.78;;;9.34;100.00
28312;BME280;15572;48.810;9.148;2022-10-31T04:31:09;98584.88;;;9.34;100.00
28312;BME280;15572;48.810;9.148;2022-10-31T04:36:07;98585.84;;;9.41;100.00
28312;BME280;15572;48.810;9.148;2022-10-31T04:41:03;98580.72;;;9.46;100.00
28312;BME280;15572;48.810;9.148;2022-10-31T04:46:02;98566.50;;;9.52;100.00
28312;BME280;15572;48.810;9.148;2022-10-31T04:50:59;98566.78;;;9.57;100.00
28312;BME280;15572;48.810;9.148;2022-10-31T04:55:57;98568.06;;;9.46;100.00
28312;BME280;15572;48.810;9.148;2022-10-31T05:00:55;98562.72;;;9.38;100.00
28312;BME280;15572;48.810;9.148;2022-10-31T05:05:53;98548.75;;;9.35;100.00
28312;BME280;15572;48.810;9.148;2022-10-31T05:10:49;98549.34;;;9.22;100.00
28312;BME280;15572;48.810;9.148;2022-10-31T05:15:47;98539.72;;;9.19;100.00
28312;BME280;15572;48.810;9.148;2022-10-31T05:20:43;98543.47;;;9.18;100.00
28312;BME280;15572;48.810;9.148;2022-10-31T05:25:41;98550.06;;;9.16;100.00
28312;BME280;15572;48.810;9.148;2022-10-31T05:30:38;98540.66;;;9.04;100.00
28312;BME280;15572;48.810;9.148;2022-10-31T05:35:34;98548.84;;;8.96;100.00
28312;BME280;15572;48.810;9.148;2022-10-31T05:40:31;98547.69;;;8.90;100.00
28312;BME280;15572;48.810;9.148;2022-10-31T05:45:28;98535.72;;;8.84;100.00
28312;BME280;15572;48.810;9.148;2022-10-31T05:50:26;98535.91;;;8.83;100.00
28312;BME280;15572;48.810;9.148;2022-10-31T05:55:23;98533.56;;;8.80;100.00
28312;BME280;15572;48.810;9.148;2022-10-31T06:00:21;98538.66;;;8.75;100.00
28312;BME280;15572;48.810;9.148;2022-10-31T06:05:19;98531.56;;;8.74;100.00
28312;BME280;15572;48.810;9.148;2022-10-31T06:10:16;98534.94;;;8.76;100.00
28312;BME280;15572;48.810;9.148;2022-10-31T06:15:15;98532.91;;;8.78;100.00
28312;BME280;15572;48.810;9.148;2022-10-31T06:20:11;98529.19;;;8.79;100.00
28312;BME280;15572;48.810;9.148;2022-10-31T06:25:09;98534.41;;;8.80;100.00
28312;BME280;15572;48.810;9.148;2022-10-31T06:30:07;98524.94;;;8.84;100.00
28312;BME280;15572;48.810;9.148;2022-10-31T06:35:04;98531.34;;;8.83;100.00
28312;BME280;15572;48.810;9.148;2022-10-31T06:40:01;98533.03;;;8.84;100.00
28312;BME280;15572;48.810;9.148;2022-10-31T06:44:59;98533.50;;;8.88;100.00
28312;BME280;15572;48.810;9.148;2022-10-31T06:49:56;98539.88;;;8.95;100.00
28312;BME280;15572;48.810;9.148;2022-10-31T06:54:52;98530.66;;;9.12;100.00
28312;BME280;15572;48.810;9.148;2022-10-31T06:59:49;98533.84;;;9.16;100.00
28312;BME280;15572;48.810;9.148;2022-10-31T07:04:46;98543.47;;;9.18;100.00
28312;BME280;15572;48.810;9.148;2022-10-31T07:09:43;98542.25;;;9.21;100.00
28312;BME280;15572;48.810;9.148;2022-10-31T07:14:39;98538.38;;;9.23;100.00
28312;BME280;15572;48.810;9.148;2022-10-31T07:19:36;98550.25;;;9.37;100.00
28312;BME280;15572;48.810;9.148;2022-10-31T07:24:34;98549.44;;;9.51;100.00
28312;BME280;15572;48.810;9.148;2022-10-31T07:29:30;98557.97;;;9.63;100.00
28312;BME280;15572;48.810;9.148;2022-10-31T07:34:27;98547.75;;;9.73;100.00
28312;BME280;15572;48.810;9.148;2022-10-31T07:39:23;98556.44;;;9.83;100.00
28312;BME280;15572;48.810;9.148;2022-10-31T07:44:21;98543.13;;;9.96;100.00
28312;BME280;15572;48.810;9.148;2022-10-31T07:49:18;98546.06;;;10.09;100.00
28312;BME280;15572;48.810;9.148;2022-10-31T07:54:14;98552.06;;;10.20;100.00
28312;BME280;15572;48.810;9.148;2022-10-31T07:59:11;98548.50;;;10.34;100.00
28312;BME280;15572;48.810;9.148;2022-10-31T08:04:10;98539.75;;;10.46;100.00
28312;BME280;15572;48.810;9.148;2022-10-31T08:09:06;98550.56;;;10.61;100.00
28312;BME280;15572;48.810;9.148;2022-10-31T08:14:03;98542.06;;;10.79;100.00
28312;BME280;15572;48.810;9.148;2022-10-31T08:19:01;98544.16;;;10.98;100.00
28312;BME280;15572;48.810;9.148;2022-10-31T08:23:59;98555.97;;;11.12;100.00
28312;BME280;15572;48.810;9.148;2022-10-31T08:28:55;98546.13;;;11.25;100.00
28312;BME280;15572;48.810;9.148;2022-10-31T08:33:52;98541.66;;;11.39;100.00
28312;BME280;15572;48.810;9.148;2022-10-31T08:38:48;98545.16;;;11.54;100.00
28312;BME280;15572;48.810;9.148;2022-10-31T08:43:46;98540.69;;;11.68;100.00
28312;BME280;15572;48.810;9.148;2022-10-31T08:48:43;98528.94;;;11.82;100.00
28312;BME280;15572;48.810;9.148;2022-10-31T08:53:40;98526.34;;;11.95;100.00
28312;BME280;15572;48.810;9.148;2022-10-31T08:58:36;98517.25;;;12.09;100.00
28312;BME280;15572;48.810;9.148;2022-10-31T09:03:34;98509.41;;;12.21;100.00
28312;BME280;15572;48.810;9.148;2022-10-31T09:08:31;98515.56;;;12.36;100.00
28312;BME280;15572;48.810;9.148;2022-10-31T09:13:28;98521.50;;;12.53;100.00
28312;BME280;15572;48.810;9.148;2022-10-31T09:18:25;98517.19;;;12.65;100.00
28312;BME280;15572;48.810;9.148;2022-10-31T09:23:24;98512.25;;;12.82;100.00
28312;BME280;15572;48.810;9.148;2022-10-31T09:28:23;98497.22;;;12.99;100.00
28312;BME280;15572;48.810;9.148;2022-10-31T09:33:20;98504.00;;;13.16;100.00
28312;BME280;15572;48.810;9.148;2022-10-31T09:38:18;98507.81;;;13.28;100.00
28312;BME280;15572;48.810;9.148;2022-10-31T09:43:24;98504.25;;;13.41;100.00
28312;BME280;15572;48.810;9.148;2022-10-31T09:48:31;98496.31;;;13.53;100.00
28312;BME280;15572;48.810;9.148;2022-10-31T09:53:34;98487.75;;;13.62;100.00
28312;BME280;15572;48.810;9.148;2022-10-31T09:58:39;98493.41;;;13.74;100.00
28312;BME280;15572;48.810;9.148;2022-10-31T10:03:40;98495.69;;;13.90;100.00
28312;BME280;15572;48.810;9.148;2022-10-31T10:08:39;98501.13;;;14.03;100.00
28312;BME280;15572;48.810;9.148;2022-10-31T10:13:47;98490.22;;;14.23;100.00
28312;BME280;15572;48.810;9.148;2022-10-31T10:18:59;98493.16;;;14.41;100.00
28312;BME280;15572;48.810;9.148;2022-10-31T10:24:09;98483.47;;;14.52;100.00
28312;BME280;15572;48.810;9.148;2022-10-31T10:29:20;98483.19;;;14.73;100.00
28312;BME280;15572;48.810;9.148;2022-10-31T10:34:24;98475.94;;;14.92;100.00
28312;BME280;15572;48.810;9.148;2022-10-31T10:39:25;98476.91;;;15.10;100.00
28312;BME280;15572;48.810;9.148;2022-10-31T10:44:27;98480.81;;;15.28;100.00
28312;BME280;15572;48.810;9.148;2022-10-31T10:49:45;98475.91;;;15.36;100.00
28312;BME280;15572;48.810;9.148;2022-10-31T10:54:58;98466.81;;;15.49;100.00
28312;BME280;15572;48.810;9.148;2022-10-31T10:59:59;98456.63;;;15.63;100.00
28312;BME280;15572;48.810;9.148;2022-10-31T11:04:58;98456.34;;;15.71;100.00
28312;BME280;15572;48.810;9.148;2022-10-31T11:10:03;98438.03;;;15.78;100.00
28312;BME280;15572;48.810;9.148;2022-10-31T11:15:06;98421.91;;;15.94;100.00
28312;BME280;15572;48.810;9.148;2022-10-31T11:20:05;98419.22;;;16.13;100.00
28312;BME280;15572;48.810;9.148;2022-10-31T11:25:20;98413.91;;;16.18;100.00
28312;BME280;15572;48.810;9.148;2022-10-31T11:30:19;98410.31;;;16.35;100.00
28312;BME280;15572;48.810;9.148;2022-10-31T11:35:16;98400.38;;;16.41;100.00
28312;BME280;15572;48.810;9.148;2022-10-31T11:40:18;98400.78;;;16.45;100.00
28312;BME280;15572;48.810;9.148;2022-10-31T11:45:17;98389.59;;;16.46;100.00
28312;BME280;15572;48.810;9.148;2022-10-31T11:50:21;98378.06;;;16.62;100.00
28312;BME280;15572;48.810;9.148;2022-10-31T11:55:31;98368.94;;;16.68;100.00
28312;BME280;15572;48.810;9.148;2022-10-31T12:00:29;98373.63;;;16.79;100.00
28312;BME280;15572;48.810;9.148;2022-10-31T12:05:27;98372.84;;;16.91;100.00
28312;BME280;15572;48.810;9.148;2022-10-31T12:10:33;98359.88;;;16.86;100.00
28312;BME280;15572;48.810;9.148;2022-10-31T12:15:34;98351.59;;;16.93;100.00
28312;BME280;15572;48.810;9.148;2022-10-31T12:20:41;98349.00;;;17.21;100.00
28312;BME280;15572;48.810;9.148;2022-10-31T12:25:43;98333.69;;;17.43;100.00
28312;BME280;15572;48.810;9.148;2022-10-31T12:30:52;98328.72;;;17.63;100.00
28312;BME280;15572;48.810;9.148;2022-10-31T12:36:00;98321.25;;;17.71;100.00
28312;BME280;15572;48.810;9.148;2022-10-31T12:41:15;98312.81;;;17.60;100.00
28312;BME280;15572;48.810;9.148;2022-10-31T12:46:25;98310.88;;;17.49;100.00
28312;BME280;15572;48.810;9.148;2022-10-31T12:51:33;98307.66;;;17.41;100.00
28312;BME280;15572;48.810;9.148;2022-10-31T12:56:45;98295.88;;;17.29;100.00
28312;BME280;15572;48.810;9.148;2022-10-31T13:01:47;98273.88;;;17.23;100.00
28312;BME280;15572;48.810;9.148;2022-10-31T13:06:49;98271.84;;;17.19;100.00
28312;BME280;15572;48.810;9.148;2022-10-31T13:11:50;98269.34;;;17.17;100.00
28312;BME280;15572;48.810;9.148;2022-10-31T13:16:50;98262.69;;;17.13;100.00
28312;BME280;15572;48.810;9.148;2022-10-31T13:21:55;98244.84;;;17.11;100.00
28312;BME280;15572;48.810;9.148;2022-10-31T13:26:57;98244.47;;;17.07;100.00
28312;BME280;15572;48.810;9.148;2022-10-31T13:31:54;98236.88;;;17.09;100.00
28312;BME280;15572;48.810;9.148;2022-10-31T13:37:01;98245.69;;;17.23;100.00
28312;BME280;15572;48.810;9.148;2022-10-31T13:42:03;98248.50;;;17.86;100.00
28312;BME280;15572;48.810;9.148;2022-10-31T13:47:00;98250.09;;;18.67;100.00
28312;BME280;15572;48.810;9.148;2022-10-31T13:52:12;98244.22;;;18.92;100.00
28312;BME280;15572;48.810;9.148;2022-10-31T13:57:16;98227.00;;;18.97;100.00
28312;BME280;15572;48.810;9.148;2022-10-31T14:02:15;98221.09;;;18.71;100.00
28312;BME280;15572;48.810;9.148;2022-10-31T14:07:15;98218.03;;;18.39;100.00
28312;BME280;15572;48.810;9.148;2022-10-31T14:12:23;98218.31;;;18.09;100.00
28312;BME280;15572;48.810;9.148;2022-10-31T14:17:23;98216.19;;;18.00;100.00
28312;BME280;15572;48.810;9.148;2022-10-31T14:22:23;98203.94;;;17.91;100.00
28312;BME280;15572;48.810;9.148;2022-10-31T14:27:34;98205.50;;;17.87;100.00
28312;BME280;15572;48.810;9.148;2022-10-31T14:32:32;98200.56;;;17.72;100.00
28312;BME280;15572;48.810;9.148;2022-10-31T14:37:47;98204.38;;;17.59;100.00
28312;BME280;15572;48.810;9.148;2022-10-31T14:43:04;98198.16;;;17.52;100.00
28312;BME280;15572;48.810;9.148;2022-10-31T14:48:12;98184.16;;;17.49;100.00
28312;BME280;15572;48.810;9.148;2022-10-31T14:53:19;98192.34;;;17.49;100.00
28312;BME280;15572;48.810;9.148;2022-10-31T14:58:20;98186.78;;;17.44;100.00
28312;BME280;15572;48.810;9.148;2022-10-31T15:03:22;98185.72;;;17.33;100.00
28312;BME280;15572;48.810;9.148;2022-10-31T15:08:33;98178.47;;;17.27;100.00
28312;BME280;15572;48.810;9.148;2022-10-31T15:13:30;98181.59;;;17.19;100.00
28312;BME280;15572;48.810;9.148;2022-10-31T15:18:27;98175.38;;;17.00;100.00
28312;BME280;15572;48.810;9.148;2022-10-31T15:23:26;98178.38;;;16.75;100.00
28312;BME280;15572;48.810;9.148;2022-10-31T15:28:25;98183.75;;;16.52;100.00
28312;BME280;15572;48.810;9.148;2022-10-31T15:33:23;98177.28;;;16.35;100.00
28312;BME280;15572;48.810;9.148;2022-10-31T15:38:20;98168.34;;;16.16;100.00
28312;BME280;15572;48.810;9.148;2022-10-31T15:43:17;98157.03;;;16.01;100.00
28312;BME280;15572;48.810;9.148;2022-10-31T15:48:16;98161.44;;;15.84;100.00
28312;BME280;15572;48.810;9.148;2022-10-31T15:53:16;98162.56;;;15.65;100.00
28312;BME280;15572;48.810;9.148;2022-10-31T15:58:16;98152.25;;;15.48;100.00
28312;BME280;15572;48.810;9.148;2022-10-31T16:03:24;98152.47;;;15.29;100.00
28312;BME280;15572;48.810;9.148;2022-10-31T16:08:23;98156.19;;;15.16;100.00
28312;BME280;15572;48.810;9.148;2022-10-31T16:13:23;98164.84;;;15.06;100.00
28312;BME280;15572;48.810;9.148;2022-10-31T16:18:23;98156.69;;;14.88;100.00
28312;BME280;15572;48.810;9.148;2022-10-31T16:23:21;98145.97;;;14.68;100.00
28312;BME280;15572;48.810;9.148;2022-10-31T16:28:19;98141.94;;;14.53;100.00
28312;BME280;15572;48.810;9.148;2022-10-31T16:33:25;98133.44;;;14.36;100.00
28312;BME280;15572;48.810;9.148;2022-10-31T16:38:22;98140.88;;;14.22;100.00
28312;BME280;15572;48.810;9.148;2022-10-31T16:43:20;98136.13;;;14.11;100.00
28312;BME280;15572;48.810;9.148;2022-10-31T16:48:20;98143.94;;;14.01;100.00
28312;BME280;15572;48.810;9.148;2022-10-31T16:53:19;98139.84;;;13.92;100.00
28312;BME280;15572;48.810;9.148;2022-10-31T16:58:19;98133.81;;;13.83;100.00
28312;BME280;15572;48.810;9.148;2022-10-31T17:03:18;98130.34;;;13.70;100.00
28312;BME280;15572;48.810;9.148;2022-10-31T17:08:15;98128.94;;;13.61;100.00
28312;BME280;15572;48.810;9.148;2022-10-31T17:13:17;98132.50;;;13.55;100.00
28312;BME280;15572;48.810;9.148;2022-10-31T17:18:15;98134.66;;;13.46;100.00
28312;BME280;15572;48.810;9.148;2022-10-31T17:23:14;98126.72;;;13.38;100.00
28312;BME280;15572;48.810;9.148;2022-10-31T17:28:13;98136.97;;;13.36;100.00
28312;BME280;15572;48.810;9.148;2022-10-31T17:33:11;98142.19;;;13.37;100.00
28312;BME280;15572;48.810;9.148;2022-10-31T17:38:08;98135.09;;;13.36;100.00
28312;BME280;15572;48.810;9.148;2022-10-31T17:43:05;98143.69;;;13.33;100.00
28312;BME280;15572;48.810;9.148;2022-10-31T17:48:03;98135.75;;;13.25;100.00
28312;BME280;15572;48.810;9.148;2022-10-31T17:53:00;98125.31;;;13.09;100.00
28312;BME280;15572;48.810;9.148;2022-10-31T17:57:56;98115.34;;;12.96;100.00
28312;BME280;15572;48.810;9.148;2022-10-31T18:02:53;98101.78;;;12.96;100.00
28312;BME280;15572;48.810;9.148;2022-10-31T18:07:51;98113.09;;;12.87;100.00
28312;BME280;15572;48.810;9.148;2022-10-31T18:12:47;98105.59;;;12.69;100.00
28312;BME280;15572;48.810;9.148;2022-10-31T18:17:44;98117.31;;;12.63;100.00
28312;BME280;15572;48.810;9.148;2022-10-31T18:22:40;98103.53;;;12.51;100.00
28312;BME280;15572;48.810;9.148;2022-10-31T18:27:38;98105.22;;;12.39;100.00
28312;BME280;15572;48.810;9.148;2022-10-31T18:32:35;98078.69;;;12.35;100.00
28312;BME280;15572;48.810;9.148;2022-10-31T18:37:31;98061.38;;;12.36;100.00
28312;BME280;15572;48.810;9.148;2022-10-31T18:42:28;98048.00;;;12.41;100.00
28312;BME280;15572;48.810;9.148;2022-10-31T18:47:26;98048.19;;;12.46;100.00
28312;BME280;15572;48.810;9.148;2022-10-31T18:52:22;98057.19;;;12.40;100.00
28312;BME280;15572;48.810;9.148;2022-10-31T18:57:19;98048.19;;;12.46;100.00
28312;BME280;15572;48.810;9.148;2022-10-31T19:02:15;98056.75;;;12.49;100.00
28312;BME280;15572;48.810;9.148;2022-10-31T19:07:13;98043.59;;;12.53;100.00
28312;BME280;15572;48.810;9.148;2022-10-31T19:12:10;98065.50;;;12.58;100.00
28312;BME280;15572;48.810;9.148;2022-10-31T19:17:06;98097.25;;;12.57;100.00
28312;BME280;15572;48.810;9.148;2022-10-31T19:22:03;98126.50;;;12.62;100.00
28312;BME280;15572;48.810;9.148;2022-10-31T19:27:00;98090.91;;;12.90;100.00
28312;BME280;15572;48.810;9.148;2022-10-31T19:31:58;98111.59;;;12.91;100.00
28312;BME280;15572;48.810;9.148;2022-10-31T19:36:54;98101.53;;;13.04;100.00
28312;BME280;15572;48.810;9.148;2022-10-31T19:41:51;98132.03;;;13.06;100.00
28312;BME280;15572;48.810;9.148;2022-10-31T19:46:49;98112.63;;;13.03;100.00
28312;BME280;15572;48.810;9.148;2022-10-31T19:51:45;98110.31;;;12.93;100.00
28312;BME280;15572;48.810;9.148;2022-10-31T19:56:42;98106.81;;;12.86;100.00
28312;BME280;15572;48.810;9.148;2022-10-31T20:01:38;98104.75;;;12.82;100.00
28312;BME280;15572;48.810;9.148;2022-10-31T20:06:38;98112.91;;;12.75;100.00
28312;BME280;15572;48.810;9.148;2022-10-31T20:11:36;98129.41;;;12.74;100.00
28312;BME280;15572;48.810;9.148;2022-10-31T20:16:33;98121.44;;;12.72;100.00
28312;BME280;15572;48.810;9.148;2022-10-31T20:21:30;98118.13;;;12.63;100.00
28312;BME280;15572;48.810;9.148;2022-10-31T20:26:32;98133.78;;;12.61;100.00
28312;BME280;15572;48.810;9.148;2022-10-31T20:31:31;98136.72;;;12.66;100.00
28312;BME280;15572;48.810;9.148;2022-10-31T20:36:28;98136.50;;;12.75;100.00
28312;BME280;15572;48.810;9.148;2022-10-31T20:41:25;98127.53;;;12.74;100.00
28312;BME280;15572;48.810;9.148;2022-10-31T20:46:25;98124.16;;;12.72;100.00
28312;BME280;15572;48.810;9.148;2022-10-31T20:51:24;98118.97;;;12.71;100.00
28312;BME280;15572;48.810;9.148;2022-10-31T20:56:23;98123.16;;;12.60;100.00
28312;BME280;15572;48.810;9.148;2022-10-31T21:01:23;98123.81;;;12.49;100.00
28312;BME280;15572;48.810;9.148;2022-10-31T21:06:21;98123.41;;;12.39;100.00
28312;BME280;15572;48.810;9.148;2022-10-31T21:11:19;98136.34;;;12.37;100.00
28312;BME280;15572;48.810;9.148;2022-10-31T21:16:18;98146.16;;;12.31;100.00
28312;BME280;15572;48.810;9.148;2022-10-31T21:21:18;98141.75;;;12.30;100.00
28312;BME280;15572;48.810;9.148;2022-10-31T21:26:17;98158.66;;;12.19;100.00
28312;BME280;15572;48.810;9.148;2022-10-31T21:31:16;98159.28;;;12.21;100.00
28312;BME280;15572;48.810;9.148;2022-10-31T21:36:13;98162.00;;;12.34;100.00
28312;BME280;15572;48.810;9.148;2022-10-31T21:41:14;98164.94;;;12.46;100.00
28312;BME280;15572;48.810;9.148;2022-10-31T21:46:13;98160.75;;;12.30;100.00
28312;BME280;15572;48.810;9.148;2022-10-31T21:51:11;98163.69;;;12.15;100.00
28312;BME280;15572;48.810;9.148;2022-10-31T21:56:08;98165.13;;;12.05;100.00
28312;BME280;15572;48.810;9.148;2022-10-31T22:01:06;98165.31;;;12.03;100.00
28312;BME280;15572;48.810;9.148;2022-10-31T22:06:03;98147.38;;;11.96;100.00
28312;BME280;15572;48.810;9.148;2022-10-31T22:11:01;98157.16;;;11.90;100.00
28312;BME280;15572;48.810;9.148;2022-10-31T22:15:59;98139.22;;;11.89;100.00
28312;BME280;15572;48.810;9.148;2022-10-31T22:21:01;98125.63;;;11.82;100.00
28312;BME280;15572;48.810;9.148;2022-10-31T22:26:01;98127.94;;;11.79;100.00
28312;BME280;15572;48.810;9.148;2022-10-31T22:31:02;98141.50;;;11.79;100.00
28312;BME280;15572;48.810;9.148;2022-10-31T22:36:00;98135.03;;;11.73;100.00
28312;BME280;15572;48.810;9.148;2022-10-31T22:40:58;98126.03;;;11.73;100.00
28312;BME280;15572;48.810;9.148;2022-10-31T22:45:54;98113.06;;;11.68;100.00
28312;BME280;15572;48.810;9.148;2022-10-31T22:50:54;98104.91;;;11.62;100.00
28312;BME280;15572;48.810;9.148;2022-10-31T22:55:52;98101.16;;;11.56;100.00
28312;BME280;15572;48.810;9.148;2022-10-31T23:00:48;98114.50;;;11.58;100.00
28312;BME280;15572;48.810;9.148;2022-10-31T23:05:53;98123.47;;;11.52;100.00
28312;BME280;15572;48.810;9.148;2022-10-31T23:10:49;98133.03;;;11.48;100.00
28312;BME280;15572;48.810;9.148;2022-10-31T23:15:47;98122.19;;;11.48;100.00
28312;BME280;15572;48.810;9.148;2022-10-31T23:20:49;98126.16;;;11.52;100.00
28312;BME280;15572;48.810;9.148;2022-10-31T23:25:46;98121.59;;;11.52;100.00
28312;BME280;15572;48.810;9.148;2022-10-31T23:31:02;98125.91;;;11.40;100.00
28312;BME280;15572;48.810;9.148;2022-10-31T23:35:58;98139.28;;;11.42;100.00
28312;BME280;15572;48.810;9.148;2022-10-31T23:40:55;98136.53;;;11.35;100.00
28312;BME280;15572;48.810;9.148;2022-10-31T23:45:51;98129.66;;;11.32;100.00
28312;BME280;15572;48.810;9.148;2022-10-31T23:50:49;98119.84;;;11.31;100.00
28312;BME280;15572;48.810;9.148;2022-10-31T23:55:46;98126.31;;;11.30;100.00
